Lenox, Kentucky
Current Conditions -  °F | °C
As of 8:53 AM on Saturday 25 Oct 2014 (Local Time) from KJKL Reporting Station
Clear Clear  
Wind Chill: 44°   Ceiling: Unl
Heat Index: 44°   Visibility: 10mi
Dew Point: 41°   Wind: 3mph
Humidity: 89%   Direction: NA
Pressure: 30.07"   Gusts: NA
Location:  37.937°N, 83.2694°W
Report Text: KJKL 251253Z AUTO VRB03KT 10SM CLR 07/05 A3007 RMK AO2 SLP183 T00670050
Loading
Personal Weather Stations






























Interactive Weather Map
Tropical Storm Tracking
New forecast layout! Learn more

10-Day Weather Forecast

Advertisements
Track Severe Weather on mobile